sensor_id;sensor_type;location;lat;lon;timestamp;temperature;humidity
48575;DHT22;34352;51.084;3.712;2024-02-04T00:00:30;10.90;99.90
48575;DHT22;34352;51.084;3.712;2024-02-04T00:02:56;10.90;99.90
48575;DHT22;34352;51.084;3.712;2024-02-04T00:05:22;10.80;99.90
48575;DHT22;34352;51.084;3.712;2024-02-04T00:07:47;10.90;99.90
48575;DHT22;34352;51.084;3.712;2024-02-04T00:10:13;10.80;99.90
48575;DHT22;34352;51.084;3.712;2024-02-04T00:12:41;10.90;99.90
48575;DHT22;34352;51.084;3.712;2024-02-04T00:15:07;10.90;99.90
48575;DHT22;34352;51.084;3.712;2024-02-04T00:17:34;10.80;99.90
48575;DHT22;34352;51.084;3.712;2024-02-04T00:20:00;10.80;99.90
48575;DHT22;34352;51.084;3.712;2024-02-04T00:22:27;10.80;99.90
48575;DHT22;34352;51.084;3.712;2024-02-04T00:24:53;10.80;99.90
48575;DHT22;34352;51.084;3.712;2024-02-04T00:27:19;10.80;99.90
48575;DHT22;34352;51.084;3.712;2024-02-04T00:29:45;10.80;99.90
48575;DHT22;34352;51.084;3.712;2024-02-04T00:32:10;10.80;99.90
48575;DHT22;34352;51.084;3.712;2024-02-04T00:34:36;10.80;99.90
48575;DHT22;34352;51.084;3.712;2024-02-04T00:37:02;10.80;99.90
48575;DHT22;34352;51.084;3.712;2024-02-04T00:39:28;10.80;99.90
48575;DHT22;34352;51.084;3.712;2024-02-04T00:41:54;10.70;99.90
48575;DHT22;34352;51.084;3.712;2024-02-04T00:44:21;10.70;99.90
48575;DHT22;34352;51.084;3.712;2024-02-04T00:46:46;10.80;99.90
48575;DHT22;34352;51.084;3.712;2024-02-04T00:49:12;10.80;99.90
48575;DHT22;34352;51.084;3.712;2024-02-04T00:51:38;10.80;99.90
48575;DHT22;34352;51.084;3.712;2024-02-04T00:54:03;10.80;99.90
48575;DHT22;34352;51.084;3.712;2024-02-04T00:56:30;10.80;99.90
48575;DHT22;34352;51.084;3.712;2024-02-04T00:58:56;10.80;99.90
48575;DHT22;34352;51.084;3.712;2024-02-04T01:01:21;10.90;99.90
48575;DHT22;34352;51.084;3.712;2024-02-04T01:03:47;10.90;99.90
48575;DHT22;34352;51.084;3.712;2024-02-04T01:06:14;10.90;99.90
48575;DHT22;34352;51.084;3.712;2024-02-04T01:08:41;10.90;99.90
48575;DHT22;34352;51.084;3.712;2024-02-04T01:11:06;10.90;99.90
48575;DHT22;34352;51.084;3.712;2024-02-04T01:13:32;10.90;99.90
48575;DHT22;34352;51.084;3.712;2024-02-04T01:15:58;10.90;99.90
48575;DHT22;34352;51.084;3.712;2024-02-04T01:18:23;10.90;99.90
48575;DHT22;34352;51.084;3.712;2024-02-04T01:20:50;10.90;99.90
48575;DHT22;34352;51.084;3.712;2024-02-04T01:23:16;11.00;99.90
48575;DHT22;34352;51.084;3.712;2024-02-04T01:25:45;11.00;99.90
48575;DHT22;34352;51.084;3.712;2024-02-04T01:28:11;10.90;99.90
48575;DHT22;34352;51.084;3.712;2024-02-04T01:30:36;10.90;99.90
48575;DHT22;34352;51.084;3.712;2024-02-04T01:33:03;11.00;99.90
48575;DHT22;34352;51.084;3.712;2024-02-04T01:35:29;10.90;99.90
48575;DHT22;34352;51.084;3.712;2024-02-04T01:37:54;11.00;99.90
48575;DHT22;34352;51.084;3.712;2024-02-04T01:40:20;11.00;99.90
48575;DHT22;34352;51.084;3.712;2024-02-04T01:42:46;11.00;99.90
48575;DHT22;34352;51.084;3.712;2024-02-04T01:45:12;11.00;99.90
48575;DHT22;34352;51.084;3.712;2024-02-04T01:47:37;11.10;99.90
48575;DHT22;34352;51.084;3.712;2024-02-04T01:50:04;11.00;99.90
48575;DHT22;34352;51.084;3.712;2024-02-04T01:52:36;11.00;99.90
48575;DHT22;34352;51.084;3.712;2024-02-04T01:55:05;11.00;99.90
48575;DHT22;34352;51.084;3.712;2024-02-04T01:57:32;11.00;99.90
48575;DHT22;34352;51.084;3.712;2024-02-04T01:59:57;11.00;99.90
48575;DHT22;34352;51.084;3.712;2024-02-04T02:02:25;11.00;99.90
48575;DHT22;34352;51.084;3.712;2024-02-04T02:04:51;11.00;99.90
48575;DHT22;34352;51.084;3.712;2024-02-04T02:07:18;11.00;99.90
48575;DHT22;34352;51.084;3.712;2024-02-04T02:09:47;11.00;99.90
48575;DHT22;34352;51.084;3.712;2024-02-04T02:12:25;11.00;99.90
48575;DHT22;34352;51.084;3.712;2024-02-04T02:15:09;11.00;99.90
48575;DHT22;34352;51.084;3.712;2024-02-04T02:17:51;11.10;99.90
48575;DHT22;34352;51.084;3.712;2024-02-04T02:20:54;11.10;99.90
48575;DHT22;34352;51.084;3.712;2024-02-04T02:23:22;11.10;99.90
48575;DHT22;34352;51.084;3.712;2024-02-04T02:25:49;11.10;99.90
48575;DHT22;34352;51.084;3.712;2024-02-04T02:28:15;11.10;99.90
48575;DHT22;34352;51.084;3.712;2024-02-04T02:30:40;11.10;99.90
48575;DHT22;34352;51.084;3.712;2024-02-04T02:33:06;11.10;99.90
48575;DHT22;34352;51.084;3.712;2024-02-04T02:35:34;11.10;99.90
48575;DHT22;34352;51.084;3.712;2024-02-04T02:38:37;11.10;99.90
48575;DHT22;34352;51.084;3.712;2024-02-04T02:41:08;11.20;99.90
48575;DHT22;34352;51.084;3.712;2024-02-04T02:43:35;11.10;99.90
48575;DHT22;34352;51.084;3.712;2024-02-04T02:46:05;11.10;99.90
48575;DHT22;34352;51.084;3.712;2024-02-04T02:48:32;11.10;99.90
48575;DHT22;34352;51.084;3.712;2024-02-04T02:50:58;11.00;99.90
48575;DHT22;34352;51.084;3.712;2024-02-04T02:53:23;10.90;99.90
48575;DHT22;34352;51.084;3.712;2024-02-04T02:55:49;10.90;99.90
48575;DHT22;34352;51.084;3.712;2024-02-04T02:58:15;10.90;99.90
48575;DHT22;34352;51.084;3.712;2024-02-04T03:00:40;10.90;99.90
48575;DHT22;34352;51.084;3.712;2024-02-04T03:03:06;10.80;99.90
48575;DHT22;34352;51.084;3.712;2024-02-04T03:05:32;10.80;99.90
48575;DHT22;34352;51.084;3.712;2024-02-04T03:07:58;10.80;99.90
48575;DHT22;34352;51.084;3.712;2024-02-04T03:10:25;10.80;99.90
48575;DHT22;34352;51.084;3.712;2024-02-04T03:12:50;10.80;99.90
48575;DHT22;34352;51.084;3.712;2024-02-04T03:15:16;10.70;99.90
48575;DHT22;34352;51.084;3.712;2024-02-04T03:17:45;10.60;99.90
48575;DHT22;34352;51.084;3.712;2024-02-04T03:20:11;10.70;99.90
48575;DHT22;34352;51.084;3.712;2024-02-04T03:22:36;10.60;99.90
48575;DHT22;34352;51.084;3.712;2024-02-04T03:25:02;10.60;99.90
48575;DHT22;34352;51.084;3.712;2024-02-04T03:27:28;10.60;99.90
48575;DHT22;34352;51.084;3.712;2024-02-04T03:29:54;10.60;99.90
48575;DHT22;34352;51.084;3.712;2024-02-04T03:32:19;10.60;99.90
48575;DHT22;34352;51.084;3.712;2024-02-04T03:34:45;10.60;99.90
48575;DHT22;34352;51.084;3.712;2024-02-04T03:37:10;10.60;99.90
48575;DHT22;34352;51.084;3.712;2024-02-04T03:39:36;10.60;99.90
48575;DHT22;34352;51.084;3.712;2024-02-04T03:42:02;10.60;99.90
48575;DHT22;34352;51.084;3.712;2024-02-04T03:44:28;10.60;99.90
48575;DHT22;34352;51.084;3.712;2024-02-04T03:46:54;10.60;99.90
48575;DHT22;34352;51.084;3.712;2024-02-04T03:49:20;10.60;99.90
48575;DHT22;34352;51.084;3.712;2024-02-04T03:51:46;10.60;99.90
48575;DHT22;34352;51.084;3.712;2024-02-04T03:54:13;10.70;99.90
48575;DHT22;34352;51.084;3.712;2024-02-04T03:56:38;10.70;99.90
48575;DHT22;34352;51.084;3.712;2024-02-04T03:59:04;10.70;99.90
48575;DHT22;34352;51.084;3.712;2024-02-04T04:01:32;10.80;99.90
48575;DHT22;34352;51.084;3.712;2024-02-04T04:03:57;10.80;99.90
48575;DHT22;34352;51.084;3.712;2024-02-04T04:06:23;10.80;99.90
48575;DHT22;34352;51.084;3.712;2024-02-04T04:08:48;10.80;99.90
48575;DHT22;34352;51.084;3.712;2024-02-04T04:11:14;10.70;99.90
48575;DHT22;34352;51.084;3.712;2024-02-04T04:13:40;10.80;99.90
48575;DHT22;34352;51.084;3.712;2024-02-04T04:16:06;10.80;99.90
48575;DHT22;34352;51.084;3.712;2024-02-04T04:18:32;10.80;99.90
48575;DHT22;34352;51.084;3.712;2024-02-04T04:20:57;10.80;99.90
48575;DHT22;34352;51.084;3.712;2024-02-04T04:23:23;10.80;99.90
48575;DHT22;34352;51.084;3.712;2024-02-04T04:25:49;10.70;99.90
48575;DHT22;34352;51.084;3.712;2024-02-04T04:28:14;10.80;99.90
48575;DHT22;34352;51.084;3.712;2024-02-04T04:30:40;10.80;99.90
48575;DHT22;34352;51.084;3.712;2024-02-04T04:33:06;10.80;99.90
48575;DHT22;34352;51.084;3.712;2024-02-04T04:35:32;10.80;99.90
48575;DHT22;34352;51.084;3.712;2024-02-04T04:37:57;10.90;99.90
48575;DHT22;34352;51.084;3.712;2024-02-04T04:40:23;10.90;99.90
48575;DHT22;34352;51.084;3.712;2024-02-04T04:42:49;10.80;99.90
48575;DHT22;34352;51.084;3.712;2024-02-04T04:45:14;10.70;99.90
48575;DHT22;34352;51.084;3.712;2024-02-04T04:47:40;10.70;99.90
48575;DHT22;34352;51.084;3.712;2024-02-04T04:50:06;10.60;99.90
48575;DHT22;34352;51.084;3.712;2024-02-04T04:52:32;10.70;99.90
48575;DHT22;34352;51.084;3.712;2024-02-04T04:54:58;10.70;99.90
48575;DHT22;34352;51.084;3.712;2024-02-04T04:57:24;10.70;99.90
48575;DHT22;34352;51.084;3.712;2024-02-04T04:59:49;10.80;99.90
48575;DHT22;34352;51.084;3.712;2024-02-04T05:02:15;10.80;99.90
48575;DHT22;34352;51.084;3.712;2024-02-04T05:04:44;10.70;99.90
48575;DHT22;34352;51.084;3.712;2024-02-04T05:07:11;10.70;99.90
48575;DHT22;34352;51.084;3.712;2024-02-04T05:09:36;10.80;99.90
48575;DHT22;34352;51.084;3.712;2024-02-04T05:12:06;10.80;99.90
48575;DHT22;34352;51.084;3.712;2024-02-04T05:14:32;10.80;99.90
48575;DHT22;34352;51.084;3.712;2024-02-04T05:16:58;10.80;99.90
48575;DHT22;34352;51.084;3.712;2024-02-04T05:19:23;10.80;99.90
48575;DHT22;34352;51.084;3.712;2024-02-04T05:21:49;10.90;99.90
48575;DHT22;34352;51.084;3.712;2024-02-04T05:24:15;10.90;99.90
48575;DHT22;34352;51.084;3.712;2024-02-04T05:26:40;10.90;99.90
48575;DHT22;34352;51.084;3.712;2024-02-04T05:29:06;10.90;99.90
48575;DHT22;34352;51.084;3.712;2024-02-04T05:31:32;10.80;99.90
48575;DHT22;34352;51.084;3.712;2024-02-04T05:33:57;10.80;99.90
48575;DHT22;34352;51.084;3.712;2024-02-04T05:36:23;10.80;99.90
48575;DHT22;34352;51.084;3.712;2024-02-04T05:38:50;10.80;99.90
48575;DHT22;34352;51.084;3.712;2024-02-04T05:41:15;10.70;99.90
48575;DHT22;34352;51.084;3.712;2024-02-04T05:43:41;10.70;99.90
48575;DHT22;34352;51.084;3.712;2024-02-04T05:46:06;10.70;99.90
48575;DHT22;34352;51.084;3.712;2024-02-04T05:48:32;10.70;99.90
48575;DHT22;34352;51.084;3.712;2024-02-04T05:50:59;10.70;99.90
48575;DHT22;34352;51.084;3.712;2024-02-04T05:53:24;10.70;99.90
48575;DHT22;34352;51.084;3.712;2024-02-04T05:55:50;10.60;99.90
48575;DHT22;34352;51.084;3.712;2024-02-04T05:58:16;10.60;99.90
48575;DHT22;34352;51.084;3.712;2024-02-04T06:00:41;10.60;99.90
48575;DHT22;34352;51.084;3.712;2024-02-04T06:03:07;10.60;99.90
48575;DHT22;34352;51.084;3.712;2024-02-04T06:05:32;10.50;99.90
48575;DHT22;34352;51.084;3.712;2024-02-04T06:07:58;10.60;99.90
48575;DHT22;34352;51.084;3.712;2024-02-04T06:10:24;10.60;99.90
48575;DHT22;34352;51.084;3.712;2024-02-04T06:12:49;10.60;99.90
48575;DHT22;34352;51.084;3.712;2024-02-04T06:15:16;10.60;99.90
48575;DHT22;34352;51.084;3.712;2024-02-04T06:17:42;10.60;99.90
48575;DHT22;34352;51.084;3.712;2024-02-04T06:20:08;10.60;99.90
48575;DHT22;34352;51.084;3.712;2024-02-04T06:22:34;10.60;99.90
48575;DHT22;34352;51.084;3.712;2024-02-04T06:25:01;10.60;99.90
48575;DHT22;34352;51.084;3.712;2024-02-04T06:27:27;10.60;99.90
48575;DHT22;34352;51.084;3.712;2024-02-04T06:29:53;10.60;99.90
48575;DHT22;34352;51.084;3.712;2024-02-04T06:32:19;10.60;99.90
48575;DHT22;34352;51.084;3.712;2024-02-04T06:34:47;10.60;99.90
48575;DHT22;34352;51.084;3.712;2024-02-04T06:37:12;10.60;99.90
48575;DHT22;34352;51.084;3.712;2024-02-04T06:39:38;10.60;99.90
48575;DHT22;34352;51.084;3.712;2024-02-04T06:42:04;10.60;99.90
48575;DHT22;34352;51.084;3.712;2024-02-04T06:44:30;10.60;99.90
48575;DHT22;34352;51.084;3.712;2024-02-04T06:46:55;10.60;99.90
48575;DHT22;34352;51.084;3.712;2024-02-04T06:49:21;10.60;99.90
48575;DHT22;34352;51.084;3.712;2024-02-04T06:51:47;10.60;99.90
48575;DHT22;34352;51.084;3.712;2024-02-04T06:54:13;10.70;99.90
48575;DHT22;34352;51.084;3.712;2024-02-04T06:56:39;10.70;99.90
48575;DHT22;34352;51.084;3.712;2024-02-04T06:59:05;10.70;99.90
48575;DHT22;34352;51.084;3.712;2024-02-04T07:01:32;10.70;99.90
48575;DHT22;34352;51.084;3.712;2024-02-04T07:03:58;10.70;99.90
48575;DHT22;34352;51.084;3.712;2024-02-04T07:06:24;10.70;99.90
48575;DHT22;34352;51.084;3.712;2024-02-04T07:08:50;10.70;99.90
48575;DHT22;34352;51.084;3.712;2024-02-04T07:11:16;10.70;99.90
48575;DHT22;34352;51.084;3.712;2024-02-04T07:13:42;10.80;99.90
48575;DHT22;34352;51.084;3.712;2024-02-04T07:16:08;10.80;99.90
48575;DHT22;34352;51.084;3.712;2024-02-04T07:18:34;10.80;99.90
48575;DHT22;34352;51.084;3.712;2024-02-04T07:20:59;10.80;99.90
48575;DHT22;34352;51.084;3.712;2024-02-04T07:23:25;10.80;99.90
48575;DHT22;34352;51.084;3.712;2024-02-04T07:25:51;10.80;99.90
48575;DHT22;34352;51.084;3.712;2024-02-04T07:28:16;10.90;99.90
48575;DHT22;34352;51.084;3.712;2024-02-04T07:30:42;10.90;99.90
48575;DHT22;34352;51.084;3.712;2024-02-04T07:33:08;10.90;99.90
48575;DHT22;34352;51.084;3.712;2024-02-04T07:35:35;10.90;99.90
48575;DHT22;34352;51.084;3.712;2024-02-04T07:38:01;10.90;99.90
48575;DHT22;34352;51.084;3.712;2024-02-04T07:40:27;10.90;99.90
48575;DHT22;34352;51.084;3.712;2024-02-04T07:42:53;10.90;99.90
48575;DHT22;34352;51.084;3.712;2024-02-04T07:45:19;11.00;99.90
48575;DHT22;34352;51.084;3.712;2024-02-04T07:47:45;11.00;99.90
48575;DHT22;34352;51.084;3.712;2024-02-04T07:50:12;11.00;99.90
48575;DHT22;34352;51.084;3.712;2024-02-04T07:52:38;11.00;99.90
48575;DHT22;34352;51.084;3.712;2024-02-04T07:55:04;10.90;99.90
48575;DHT22;34352;51.084;3.712;2024-02-04T07:57:30;11.00;99.90
48575;DHT22;34352;51.084;3.712;2024-02-04T07:59:55;11.10;99.90
48575;DHT22;34352;51.084;3.712;2024-02-04T08:02:21;11.00;99.90
48575;DHT22;34352;51.084;3.712;2024-02-04T08:04:47;11.10;99.90
48575;DHT22;34352;51.084;3.712;2024-02-04T08:07:13;11.10;99.90
48575;DHT22;34352;51.084;3.712;2024-02-04T08:09:39;11.10;99.90
48575;DHT22;34352;51.084;3.712;2024-02-04T08:12:05;11.10;99.90
48575;DHT22;34352;51.084;3.712;2024-02-04T08:14:30;11.10;99.90
48575;DHT22;34352;51.084;3.712;2024-02-04T08:16:56;11.10;99.90
48575;DHT22;34352;51.084;3.712;2024-02-04T08:19:22;11.10;99.90
48575;DHT22;34352;51.084;3.712;2024-02-04T08:21:47;11.10;99.90
48575;DHT22;34352;51.084;3.712;2024-02-04T08:24:16;11.10;99.90
48575;DHT22;34352;51.084;3.712;2024-02-04T08:26:42;11.20;99.90
48575;DHT22;34352;51.084;3.712;2024-02-04T08:29:08;11.20;99.90
48575;DHT22;34352;51.084;3.712;2024-02-04T08:31:35;11.10;99.90
48575;DHT22;34352;51.084;3.712;2024-02-04T08:34:01;11.10;99.90
48575;DHT22;34352;51.084;3.712;2024-02-04T08:36:29;11.10;99.90
48575;DHT22;34352;51.084;3.712;2024-02-04T08:38:56;11.20;99.90
48575;DHT22;34352;51.084;3.712;2024-02-04T08:41:23;11.20;99.90
48575;DHT22;34352;51.084;3.712;2024-02-04T08:43:48;11.20;99.90
48575;DHT22;34352;51.084;3.712;2024-02-04T08:46:17;11.20;99.90
48575;DHT22;34352;51.084;3.712;2024-02-04T08:48:43;11.60;99.90
48575;DHT22;34352;51.084;3.712;2024-02-04T08:51:12;11.20;99.90
48575;DHT22;34352;51.084;3.712;2024-02-04T08:53:39;11.30;99.90
48575;DHT22;34352;51.084;3.712;2024-02-04T08:56:08;11.30;99.90
48575;DHT22;34352;51.084;3.712;2024-02-04T08:58:35;11.30;99.90
48575;DHT22;34352;51.084;3.712;2024-02-04T09:01:05;11.40;99.90
48575;DHT22;34352;51.084;3.712;2024-02-04T09:03:32;11.30;99.90
48575;DHT22;34352;51.084;3.712;2024-02-04T09:05:58;11.30;99.90
48575;DHT22;34352;51.084;3.712;2024-02-04T09:08:24;11.40;99.90
48575;DHT22;34352;51.084;3.712;2024-02-04T09:10:49;11.40;99.90
48575;DHT22;34352;51.084;3.712;2024-02-04T09:13:15;11.40;99.90
48575;DHT22;34352;51.084;3.712;2024-02-04T09:15:41;11.50;99.90
48575;DHT22;34352;51.084;3.712;2024-02-04T09:18:07;11.50;99.90
48575;DHT22;34352;51.084;3.712;2024-02-04T09:20:34;11.50;99.80
48575;DHT22;34352;51.084;3.712;2024-02-04T09:22:59;11.50;99.90
48575;DHT22;34352;51.084;3.712;2024-02-04T09:25:25;11.50;99.90
48575;DHT22;34352;51.084;3.712;2024-02-04T09:27:51;11.60;99.90
48575;DHT22;34352;51.084;3.712;2024-02-04T09:30:17;11.50;99.80
48575;DHT22;34352;51.084;3.712;2024-02-04T09:32:42;11.60;99.90
48575;DHT22;34352;51.084;3.712;2024-02-04T09:35:08;11.70;99.40
48575;DHT22;34352;51.084;3.712;2024-02-04T09:37:36;11.80;98.70
48575;DHT22;34352;51.084;3.712;2024-02-04T09:40:02;11.80;98.50
48575;DHT22;34352;51.084;3.712;2024-02-04T09:42:30;11.90;98.00
48575;DHT22;34352;51.084;3.712;2024-02-04T09:44:56;12.00;98.20
48575;DHT22;34352;51.084;3.712;2024-02-04T09:47:24;12.00;97.60
48575;DHT22;34352;51.084;3.712;2024-02-04T09:49:55;12.10;97.50
48575;DHT22;34352;51.084;3.712;2024-02-04T09:55:39;12.20;96.90
48575;DHT22;34352;51.084;3.712;2024-02-04T09:58:07;12.20;96.60
48575;DHT22;34352;51.084;3.712;2024-02-04T10:00:52;12.20;96.70
48575;DHT22;34352;51.084;3.712;2024-02-04T10:03:19;12.10;97.20
48575;DHT22;34352;51.084;3.712;2024-02-04T10:05:49;12.10;96.80
48575;DHT22;34352;51.084;3.712;2024-02-04T10:11:26;12.20;97.30
48575;DHT22;34352;51.084;3.712;2024-02-04T10:13:52;12.30;97.10
48575;DHT22;34352;51.084;3.712;2024-02-04T10:16:18;12.40;96.80
48575;DHT22;34352;51.084;3.712;2024-02-04T10:18:47;12.40;96.10
48575;DHT22;34352;51.084;3.712;2024-02-04T10:21:19;12.40;96.60
48575;DHT22;34352;51.084;3.712;2024-02-04T10:23:48;12.40;96.70
48575;DHT22;34352;51.084;3.712;2024-02-04T10:26:14;12.20;96.60
48575;DHT22;34352;51.084;3.712;2024-02-04T10:28:49;12.90;97.10
48575;DHT22;34352;51.084;3.712;2024-02-04T10:31:18;12.40;96.50
48575;DHT22;34352;51.084;3.712;2024-02-04T10:33:44;12.30;96.10
48575;DHT22;34352;51.084;3.712;2024-02-04T10:36:10;12.30;96.00
48575;DHT22;34352;51.084;3.712;2024-02-04T10:38:37;12.30;95.90
48575;DHT22;34352;51.084;3.712;2024-02-04T10:41:03;12.20;96.10
48575;DHT22;34352;51.084;3.712;2024-02-04T10:43:34;12.10;97.00
48575;DHT22;34352;51.084;3.712;2024-02-04T10:46:20;12.10;96.80
48575;DHT22;34352;51.084;3.712;2024-02-04T10:48:55;12.10;97.40
48575;DHT22;34352;51.084;3.712;2024-02-04T10:51:24;12.10;97.40
48575;DHT22;34352;51.084;3.712;2024-02-04T10:53:55;12.20;97.20
48575;DHT22;34352;51.084;3.712;2024-02-04T10:56:38;12.20;96.90
48575;DHT22;34352;51.084;3.712;2024-02-04T10:59:07;12.20;96.90
48575;DHT22;34352;51.084;3.712;2024-02-04T11:01:35;12.20;96.70
48575;DHT22;34352;51.084;3.712;2024-02-04T11:04:03;12.20;96.70
48575;DHT22;34352;51.084;3.712;2024-02-04T11:06:31;12.20;96.80
48575;DHT22;34352;51.084;3.712;2024-02-04T11:08:58;12.20;97.10
48575;DHT22;34352;51.084;3.712;2024-02-04T11:11:26;12.30;96.50
48575;DHT22;34352;51.084;3.712;2024-02-04T11:13:58;12.30;96.90
48575;DHT22;34352;51.084;3.712;2024-02-04T11:25:42;12.20;96.60
48575;DHT22;34352;51.084;3.712;2024-02-04T11:28:15;12.20;97.00
48575;DHT22;34352;51.084;3.712;2024-02-04T11:30:43;12.30;96.70
48575;DHT22;34352;51.084;3.712;2024-02-04T11:33:12;12.20;96.40
48575;DHT22;34352;51.084;3.712;2024-02-04T11:35:38;12.30;96.70
48575;DHT22;34352;51.084;3.712;2024-02-04T11:38:04;12.40;95.90
48575;DHT22;34352;51.084;3.712;2024-02-04T11:40:38;12.30;96.20
48575;DHT22;34352;51.084;3.712;2024-02-04T11:43:10;12.20;95.90
48575;DHT22;34352;51.084;3.712;2024-02-04T11:45:45;12.20;96.40
48575;DHT22;34352;51.084;3.712;2024-02-04T11:48:12;13.20;96.60
48575;DHT22;34352;51.084;3.712;2024-02-04T11:50:41;12.30;96.30
48575;DHT22;34352;51.084;3.712;2024-02-04T11:53:12;12.50;96.10
48575;DHT22;34352;51.084;3.712;2024-02-04T11:55:41;12.50;95.30
48575;DHT22;34352;51.084;3.712;2024-02-04T11:58:18;12.50;95.00
48575;DHT22;34352;51.084;3.712;2024-02-04T12:00:48;12.40;95.40
48575;DHT22;34352;51.084;3.712;2024-02-04T12:03:30;12.60;95.70
48575;DHT22;34352;51.084;3.712;2024-02-04T12:05:57;12.50;94.80
48575;DHT22;34352;51.084;3.712;2024-02-04T12:08:29;12.50;95.40
48575;DHT22;34352;51.084;3.712;2024-02-04T12:10:56;12.60;95.60
48575;DHT22;34352;51.084;3.712;2024-02-04T12:13:24;12.50;95.30
48575;DHT22;34352;51.084;3.712;2024-02-04T12:15:50;12.50;95.40
48575;DHT22;34352;51.084;3.712;2024-02-04T12:21:26;12.40;96.50
48575;DHT22;34352;51.084;3.712;2024-02-04T12:23:55;12.30;97.20
48575;DHT22;34352;51.084;3.712;2024-02-04T12:26:30;12.10;97.90
48575;DHT22;34352;51.084;3.712;2024-02-04T12:29:16;12.20;98.30
48575;DHT22;34352;51.084;3.712;2024-02-04T12:31:44;12.20;98.20
48575;DHT22;34352;51.084;3.712;2024-02-04T12:34:15;12.20;97.90
48575;DHT22;34352;51.084;3.712;2024-02-04T12:39:51;12.30;98.20
48575;DHT22;34352;51.084;3.712;2024-02-04T12:42:17;12.30;98.40
48575;DHT22;34352;51.084;3.712;2024-02-04T12:44:51;12.30;98.20
48575;DHT22;34352;51.084;3.712;2024-02-04T12:47:29;12.50;98.10
48575;DHT22;34352;51.084;3.712;2024-02-04T12:50:00;12.50;97.60
48575;DHT22;34352;51.084;3.712;2024-02-04T12:52:29;12.50;97.90
48575;DHT22;34352;51.084;3.712;2024-02-04T12:54:59;12.40;98.40
48575;DHT22;34352;51.084;3.712;2024-02-04T12:57:25;12.30;98.70
48575;DHT22;34352;51.084;3.712;2024-02-04T13:00:04;12.30;98.30
48575;DHT22;34352;51.084;3.712;2024-02-04T13:02:53;12.20;99.00
48575;DHT22;34352;51.084;3.712;2024-02-04T13:05:40;12.30;98.90
48575;DHT22;34352;51.084;3.712;2024-02-04T13:08:18;12.30;98.80
48575;DHT22;34352;51.084;3.712;2024-02-04T13:10:55;12.20;98.40
48575;DHT22;34352;51.084;3.712;2024-02-04T13:13:24;12.20;98.90
48575;DHT22;34352;51.084;3.712;2024-02-04T13:16:01;12.20;98.70
48575;DHT22;34352;51.084;3.712;2024-02-04T13:18:27;12.20;98.80
48575;DHT22;34352;51.084;3.712;2024-02-04T13:20:52;12.10;98.70
48575;DHT22;34352;51.084;3.712;2024-02-04T13:23:19;12.10;98.70
48575;DHT22;34352;51.084;3.712;2024-02-04T13:25:59;12.20;98.40
48575;DHT22;34352;51.084;3.712;2024-02-04T13:28:27;12.20;98.10
48575;DHT22;34352;51.084;3.712;2024-02-04T13:30:54;12.10;98.30
48575;DHT22;34352;51.084;3.712;2024-02-04T13:33:20;12.80;98.20
48575;DHT22;34352;51.084;3.712;2024-02-04T13:35:50;12.20;97.70
48575;DHT22;34352;51.084;3.712;2024-02-04T13:38:17;12.30;97.70
48575;DHT22;34352;51.084;3.712;2024-02-04T13:40:49;12.20;97.30
48575;DHT22;34352;51.084;3.712;2024-02-04T13:43:15;12.30;97.00
48575;DHT22;34352;51.084;3.712;2024-02-04T13:45:40;12.30;96.20
48575;DHT22;34352;51.084;3.712;2024-02-04T13:48:06;12.30;95.80
48575;DHT22;34352;51.084;3.712;2024-02-04T13:50:32;12.40;95.10
48575;DHT22;34352;51.084;3.712;2024-02-04T13:52:58;12.50;93.90
48575;DHT22;34352;51.084;3.712;2024-02-04T13:55:24;12.40;93.10
48575;DHT22;34352;51.084;3.712;2024-02-04T13:57:50;12.40;93.30
48575;DHT22;34352;51.084;3.712;2024-02-04T14:00:17;12.30;92.80
48575;DHT22;34352;51.084;3.712;2024-02-04T14:02:58;12.40;93.50
48575;DHT22;34352;51.084;3.712;2024-02-04T14:05:35;12.50;93.70
48575;DHT22;34352;51.084;3.712;2024-02-04T14:08:15;12.60;93.10
48575;DHT22;34352;51.084;3.712;2024-02-04T14:10:46;12.60;92.40
48575;DHT22;34352;51.084;3.712;2024-02-04T14:13:13;12.50;92.00
48575;DHT22;34352;51.084;3.712;2024-02-04T14:15:40;12.50;91.50
48575;DHT22;34352;51.084;3.712;2024-02-04T14:18:07;12.50;91.90
48575;DHT22;34352;51.084;3.712;2024-02-04T14:20:33;12.60;91.50
48575;DHT22;34352;51.084;3.712;2024-02-04T14:23:05;12.60;90.80
48575;DHT22;34352;51.084;3.712;2024-02-04T14:25:34;12.60;91.30
48575;DHT22;34352;51.084;3.712;2024-02-04T14:28:25;12.60;91.30
48575;DHT22;34352;51.084;3.712;2024-02-04T14:31:02;12.60;91.50
48575;DHT22;34352;51.084;3.712;2024-02-04T14:33:29;12.60;91.60
48575;DHT22;34352;51.084;3.712;2024-02-04T14:35:57;12.70;91.10
48575;DHT22;34352;51.084;3.712;2024-02-04T14:38:23;12.60;90.90
48575;DHT22;34352;51.084;3.712;2024-02-04T14:40:50;12.60;91.30
48575;DHT22;34352;51.084;3.712;2024-02-04T14:43:16;12.50;91.50
48575;DHT22;34352;51.084;3.712;2024-02-04T14:45:45;12.50;92.10
48575;DHT22;34352;51.084;3.712;2024-02-04T14:48:14;12.40;92.60
48575;DHT22;34352;51.084;3.712;2024-02-04T14:50:42;12.50;92.60
48575;DHT22;34352;51.084;3.712;2024-02-04T14:53:12;12.60;92.10
48575;DHT22;34352;51.084;3.712;2024-02-04T14:55:38;12.50;92.30
48575;DHT22;34352;51.084;3.712;2024-02-04T14:58:04;12.40;92.10
48575;DHT22;34352;51.084;3.712;2024-02-04T15:00:30;12.40;92.80
48575;DHT22;34352;51.084;3.712;2024-02-04T15:03:01;12.40;92.40
48575;DHT22;34352;51.084;3.712;2024-02-04T15:05:30;12.30;92.20
48575;DHT22;34352;51.084;3.712;2024-02-04T15:07:58;12.30;92.50
48575;DHT22;34352;51.084;3.712;2024-02-04T15:10:23;12.30;92.50
48575;DHT22;34352;51.084;3.712;2024-02-04T15:12:49;12.30;92.50
48575;DHT22;34352;51.084;3.712;2024-02-04T15:15:18;12.30;92.50
48575;DHT22;34352;51.084;3.712;2024-02-04T15:17:44;12.10;93.30
48575;DHT22;34352;51.084;3.712;2024-02-04T15:20:12;12.10;93.60
48575;DHT22;34352;51.084;3.712;2024-02-04T15:22:43;12.10;94.10
48575;DHT22;34352;51.084;3.712;2024-02-04T15:25:09;12.10;94.10
48575;DHT22;34352;51.084;3.712;2024-02-04T15:27:37;12.10;94.20
48575;DHT22;34352;51.084;3.712;2024-02-04T15:30:04;12.70;94.10
48575;DHT22;34352;51.084;3.712;2024-02-04T15:32:31;12.20;93.60
48575;DHT22;34352;51.084;3.712;2024-02-04T15:34:57;12.10;93.80
48575;DHT22;34352;51.084;3.712;2024-02-04T15:37:23;12.10;94.40
48575;DHT22;34352;51.084;3.712;2024-02-04T15:39:48;12.10;94.60
48575;DHT22;34352;51.084;3.712;2024-02-04T15:42:14;12.10;94.50
48575;DHT22;34352;51.084;3.712;2024-02-04T15:44:40;12.10;94.50
48575;DHT22;34352;51.084;3.712;2024-02-04T15:47:07;12.00;94.60
48575;DHT22;34352;51.084;3.712;2024-02-04T15:49:37;12.30;94.90
48575;DHT22;34352;51.084;3.712;2024-02-04T15:52:04;12.10;94.40
48575;DHT22;34352;51.084;3.712;2024-02-04T15:54:30;12.10;94.50